sensor_id;sensor_type;location;lat;lon;timestamp;P1;durP1;ratioP1;P2;durP2;ratioP2
37937;SDS011;23763;48.130;11.602;2023-11-19T00:02:11;6.57;;;6.28;;
37937;SDS011;23763;48.130;11.602;2023-11-19T00:04:37;6.30;;;6.00;;
37937;SDS011;23763;48.130;11.602;2023-11-19T00:07:04;6.65;;;6.25;;
37937;SDS011;23763;48.130;11.602;2023-11-19T00:09:31;9.23;;;8.43;;
37937;SDS011;23763;48.130;11.602;2023-11-19T00:11:58;9.30;;;8.70;;
37937;SDS011;23763;48.130;11.602;2023-11-19T00:14:25;7.00;;;6.55;;
37937;SDS011;23763;48.130;11.602;2023-11-19T00:16:51;6.60;;;6.20;;
37937;SDS011;23763;48.130;11.602;2023-11-19T00:19:18;8.70;;;7.90;;
37937;SDS011;23763;48.130;11.602;2023-11-19T00:21:44;6.93;;;6.55;;
37937;SDS011;23763;48.130;11.602;2023-11-19T00:24:11;6.43;;;6.13;;
37937;SDS011;23763;48.130;11.602;2023-11-19T00:26:37;6.28;;;5.97;;
37937;SDS011;23763;48.130;11.602;2023-11-19T00:29:03;6.20;;;5.80;;
37937;SDS011;23763;48.130;11.602;2023-11-19T00:31:29;6.70;;;6.40;;
37937;SDS011;23763;48.130;11.602;2023-11-19T00:33:54;6.37;;;6.10;;
37937;SDS011;23763;48.130;11.602;2023-11-19T00:36:20;6.78;;;6.47;;
37937;SDS011;23763;48.130;11.602;2023-11-19T00:38:46;6.65;;;6.30;;
37937;SDS011;23763;48.130;11.602;2023-11-19T00:41:11;7.30;;;6.90;;
37937;SDS011;23763;48.130;11.602;2023-11-19T00:43:37;6.80;;;6.30;;
37937;SDS011;23763;48.130;11.602;2023-11-19T00:46:03;6.82;;;6.22;;
37937;SDS011;23763;48.130;11.602;2023-11-19T00:48:32;6.60;;;6.20;;
37937;SDS011;23763;48.130;11.602;2023-11-19T00:50:57;7.00;;;6.70;;
37937;SDS011;23763;48.130;11.602;2023-11-19T00:53:23;6.38;;;6.05;;
37937;SDS011;23763;48.130;11.602;2023-11-19T00:55:48;6.60;;;6.20;;
37937;SDS011;23763;48.130;11.602;2023-11-19T00:58:14;6.45;;;6.15;;
37937;SDS011;23763;48.130;11.602;2023-11-19T01:00:39;6.35;;;6.05;;
37937;SDS011;23763;48.130;11.602;2023-11-19T01:03:05;6.63;;;6.32;;
37937;SDS011;23763;48.130;11.602;2023-11-19T01:05:32;6.32;;;6.03;;
37937;SDS011;23763;48.130;11.602;2023-11-19T01:07:58;6.45;;;6.15;;
37937;SDS011;23763;48.130;11.602;2023-11-19T01:10:23;6.40;;;6.10;;
37937;SDS011;23763;48.130;11.602;2023-11-19T01:12:50;7.07;;;6.68;;
37937;SDS011;23763;48.130;11.602;2023-11-19T01:15:16;7.32;;;6.82;;
37937;SDS011;23763;48.130;11.602;2023-11-19T01:17:43;6.60;;;6.30;;
37937;SDS011;23763;48.130;11.602;2023-11-19T01:20:09;6.78;;;6.22;;
37937;SDS011;23763;48.130;11.602;2023-11-19T01:22:38;6.78;;;6.55;;
37937;SDS011;23763;48.130;11.602;2023-11-19T01:25:03;6.13;;;5.82;;
37937;SDS011;23763;48.130;11.602;2023-11-19T01:27:30;6.60;;;6.30;;
37937;SDS011;23763;48.130;11.602;2023-11-19T01:29:56;6.53;;;6.15;;
37937;SDS011;23763;48.130;11.602;2023-11-19T01:32:22;6.10;;;5.90;;
37937;SDS011;23763;48.130;11.602;2023-11-19T01:34:49;6.72;;;6.43;;
37937;SDS011;23763;48.130;11.602;2023-11-19T01:37:14;6.50;;;6.00;;
37937;SDS011;23763;48.130;11.602;2023-11-19T01:39:43;6.78;;;6.38;;
37937;SDS011;23763;48.130;11.602;2023-11-19T01:42:09;6.00;;;5.80;;
37937;SDS011;23763;48.130;11.602;2023-11-19T01:44:34;6.05;;;5.72;;
37937;SDS011;23763;48.130;11.602;2023-11-19T01:47:00;6.53;;;6.22;;
37937;SDS011;23763;48.130;11.602;2023-11-19T01:49:27;6.47;;;6.15;;
37937;SDS011;23763;48.130;11.602;2023-11-19T01:51:53;6.47;;;6.18;;
37937;SDS011;23763;48.130;11.602;2023-11-19T01:54:19;6.40;;;6.00;;
37937;SDS011;23763;48.130;11.602;2023-11-19T01:56:45;6.15;;;5.95;;
37937;SDS011;23763;48.130;11.602;2023-11-19T01:59:10;6.50;;;6.20;;
37937;SDS011;23763;48.130;11.602;2023-11-19T02:01:38;6.13;;;5.82;;
37937;SDS011;23763;48.130;11.602;2023-11-19T02:04:05;6.28;;;5.97;;
37937;SDS011;23763;48.130;11.602;2023-11-19T02:06:32;6.35;;;6.00;;
37937;SDS011;23763;48.130;11.602;2023-11-19T02:08:59;7.35;;;6.82;;
37937;SDS011;23763;48.130;11.602;2023-11-19T02:11:25;7.07;;;6.75;;
37937;SDS011;23763;48.130;11.602;2023-11-19T02:13:54;5.97;;;5.78;;
37937;SDS011;23763;48.130;11.602;2023-11-19T02:16:20;6.00;;;5.80;;
37937;SDS011;23763;48.130;11.602;2023-11-19T02:18:46;6.30;;;6.10;;
37937;SDS011;23763;48.130;11.602;2023-11-19T02:21:13;6.53;;;6.22;;
37937;SDS011;23763;48.130;11.602;2023-11-19T02:23:40;6.40;;;6.10;;
37937;SDS011;23763;48.130;11.602;2023-11-19T02:28:41;6.25;;;5.95;;
37937;SDS011;23763;48.130;11.602;2023-11-19T02:31:08;5.88;;;5.57;;
37937;SDS011;23763;48.130;11.602;2023-11-19T02:33:34;6.07;;;5.88;;
37937;SDS011;23763;48.130;11.602;2023-11-19T02:36:06;6.22;;;6.00;;
37937;SDS011;23763;48.130;11.602;2023-11-19T02:38:33;5.95;;;5.75;;
37937;SDS011;23763;48.130;11.602;2023-11-19T02:40:59;6.32;;;6.05;;
37937;SDS011;23763;48.130;11.602;2023-11-19T02:43:29;5.97;;;5.78;;
37937;SDS011;23763;48.130;11.602;2023-11-19T02:45:57;5.95;;;5.55;;
37937;SDS011;23763;48.130;11.602;2023-11-19T02:48:22;5.97;;;5.78;;
37937;SDS011;23763;48.130;11.602;2023-11-19T02:50:48;6.10;;;5.90;;
37937;SDS011;23763;48.130;11.602;2023-11-19T02:53:13;6.05;;;5.80;;
37937;SDS011;23763;48.130;11.602;2023-11-19T02:55:40;6.60;;;6.25;;
37937;SDS011;23763;48.130;11.602;2023-11-19T02:58:06;5.95;;;5.75;;
37937;SDS011;23763;48.130;11.602;2023-11-19T03:00:44;5.97;;;5.78;;
37937;SDS011;23763;48.130;11.602;2023-11-19T03:03:17;6.13;;;5.93;;
37937;SDS011;23763;48.130;11.602;2023-11-19T03:05:45;6.45;;;6.05;;
37937;SDS011;23763;48.130;11.602;2023-11-19T03:08:12;6.07;;;5.88;;
37937;SDS011;23763;48.130;11.602;2023-11-19T03:10:37;6.20;;;6.00;;
37937;SDS011;23763;48.130;11.602;2023-11-19T03:13:04;6.00;;;5.75;;
37937;SDS011;23763;48.130;11.602;2023-11-19T03:15:29;6.40;;;6.20;;
37937;SDS011;23763;48.130;11.602;2023-11-19T03:17:55;5.93;;;5.72;;
37937;SDS011;23763;48.130;11.602;2023-11-19T03:20:20;6.30;;;6.00;;
37937;SDS011;23763;48.130;11.602;2023-11-19T03:22:48;5.90;;;5.63;;
37937;SDS011;23763;48.130;11.602;2023-11-19T03:25:15;6.07;;;5.85;;
37937;SDS011;23763;48.130;11.602;2023-11-19T03:27:41;6.00;;;5.72;;
37937;SDS011;23763;48.130;11.602;2023-11-19T03:30:07;5.90;;;5.70;;
37937;SDS011;23763;48.130;11.602;2023-11-19T03:32:36;6.22;;;6.03;;
37937;SDS011;23763;48.130;11.602;2023-11-19T03:35:03;5.90;;;5.70;;
37937;SDS011;23763;48.130;11.602;2023-11-19T03:37:32;6.65;;;6.32;;
37937;SDS011;23763;48.130;11.602;2023-11-19T03:39:57;6.18;;;5.97;;
37937;SDS011;23763;48.130;11.602;2023-11-19T03:42:27;6.70;;;6.40;;
37937;SDS011;23763;48.130;11.602;2023-11-19T03:44:55;5.97;;;5.78;;
37937;SDS011;23763;48.130;11.602;2023-11-19T03:47:21;6.70;;;6.22;;
37937;SDS011;23763;48.130;11.602;2023-11-19T03:49:50;6.13;;;5.93;;
37937;SDS011;23763;48.130;11.602;2023-11-19T03:52:16;6.30;;;6.10;;
37937;SDS011;23763;48.130;11.602;2023-11-19T03:54:43;6.63;;;6.32;;
37937;SDS011;23763;48.130;11.602;2023-11-19T03:57:09;7.22;;;6.72;;
37937;SDS011;23763;48.130;11.602;2023-11-19T03:59:37;6.18;;;5.97;;
37937;SDS011;23763;48.130;11.602;2023-11-19T04:02:03;6.35;;;6.15;;
37937;SDS011;23763;48.130;11.602;2023-11-19T04:04:29;6.50;;;6.20;;
37937;SDS011;23763;48.130;11.602;2023-11-19T04:06:54;6.63;;;6.30;;
37937;SDS011;23763;48.130;11.602;2023-11-19T04:09:20;7.00;;;6.45;;
37937;SDS011;23763;48.130;11.602;2023-11-19T04:11:46;6.63;;;6.32;;
37937;SDS011;23763;48.130;11.602;2023-11-19T04:14:12;6.38;;;6.18;;
37937;SDS011;23763;48.130;11.602;2023-11-19T04:16:38;6.65;;;6.45;;
37937;SDS011;23763;48.130;11.602;2023-11-19T04:19:04;6.47;;;6.28;;
37937;SDS011;23763;48.130;11.602;2023-11-19T04:21:30;6.68;;;6.45;;
37937;SDS011;23763;48.130;11.602;2023-11-19T04:23:55;6.25;;;6.05;;
37937;SDS011;23763;48.130;11.602;2023-11-19T04:26:21;6.72;;;6.43;;
37937;SDS011;23763;48.130;11.602;2023-11-19T04:28:47;6.68;;;6.38;;
37937;SDS011;23763;48.130;11.602;2023-11-19T04:31:14;6.78;;;6.47;;
37937;SDS011;23763;48.130;11.602;2023-11-19T04:33:41;6.55;;;6.30;;
37937;SDS011;23763;48.130;11.602;2023-11-19T04:36:07;6.75;;;6.22;;
37937;SDS011;23763;48.130;11.602;2023-11-19T04:38:33;6.82;;;6.53;;
37937;SDS011;23763;48.130;11.602;2023-11-19T04:40:59;6.55;;;6.25;;
37937;SDS011;23763;48.130;11.602;2023-11-19T04:43:25;6.35;;;6.05;;
37937;SDS011;23763;48.130;11.602;2023-11-19T04:45:50;6.50;;;6.18;;
37937;SDS011;23763;48.130;11.602;2023-11-19T04:48:16;6.80;;;6.50;;
37937;SDS011;23763;48.130;11.602;2023-11-19T04:50:41;6.30;;;6.10;;
37937;SDS011;23763;48.130;11.602;2023-11-19T04:53:07;6.50;;;6.30;;
37937;SDS011;23763;48.130;11.602;2023-11-19T04:55:33;7.25;;;6.95;;
37937;SDS011;23763;48.130;11.602;2023-11-19T04:57:58;7.35;;;6.70;;
37937;SDS011;23763;48.130;11.602;2023-11-19T05:00:24;6.25;;;6.05;;
37937;SDS011;23763;48.130;11.602;2023-11-19T05:02:49;6.38;;;6.18;;
37937;SDS011;23763;48.130;11.602;2023-11-19T05:05:15;6.38;;;6.18;;
37937;SDS011;23763;48.130;11.602;2023-11-19T05:07:41;6.40;;;6.20;;
37937;SDS011;23763;48.130;11.602;2023-11-19T05:10:07;6.70;;;6.43;;
37937;SDS011;23763;48.130;11.602;2023-11-19T05:12:33;6.43;;;6.20;;
37937;SDS011;23763;48.130;11.602;2023-11-19T05:14:59;6.90;;;6.70;;
37937;SDS011;23763;48.130;11.602;2023-11-19T05:17:25;7.40;;;7.20;;
37937;SDS011;23763;48.130;11.602;2023-11-19T05:19:51;7.22;;;7.03;;
37937;SDS011;23763;48.130;11.602;2023-11-19T05:22:16;7.30;;;7.10;;
37937;SDS011;23763;48.130;11.602;2023-11-19T05:24:42;7.30;;;7.10;;
37937;SDS011;23763;48.130;11.602;2023-11-19T05:27:08;8.05;;;7.75;;
37937;SDS011;23763;48.130;11.602;2023-11-19T05:29:33;8.07;;;7.78;;
37937;SDS011;23763;48.130;11.602;2023-11-19T05:31:59;7.63;;;7.43;;
37937;SDS011;23763;48.130;11.602;2023-11-19T05:34:25;7.90;;;7.60;;
37937;SDS011;23763;48.130;11.602;2023-11-19T05:36:51;7.80;;;7.50;;
37937;SDS011;23763;48.130;11.602;2023-11-19T05:39:17;8.20;;;7.90;;
37937;SDS011;23763;48.130;11.602;2023-11-19T05:41:45;8.60;;;8.10;;
37937;SDS011;23763;48.130;11.602;2023-11-19T05:44:11;8.10;;;7.80;;
37937;SDS011;23763;48.130;11.602;2023-11-19T05:46:36;8.77;;;8.38;;
37937;SDS011;23763;48.130;11.602;2023-11-19T05:49:06;8.73;;;8.43;;
37937;SDS011;23763;48.130;11.602;2023-11-19T05:51:31;8.98;;;8.60;;
37937;SDS011;23763;48.130;11.602;2023-11-19T05:54:01;8.68;;;8.38;;
37937;SDS011;23763;48.130;11.602;2023-11-19T05:56:26;8.68;;;8.38;;
37937;SDS011;23763;48.130;11.602;2023-11-19T05:58:57;8.40;;;8.10;;
37937;SDS011;23763;48.130;11.602;2023-11-19T06:01:23;8.27;;;7.97;;
37937;SDS011;23763;48.130;11.602;2023-11-19T06:03:48;8.55;;;8.25;;
37937;SDS011;23763;48.130;11.602;2023-11-19T06:06:15;8.50;;;8.20;;
37937;SDS011;23763;48.130;11.602;2023-11-19T06:08:40;8.10;;;7.80;;
37937;SDS011;23763;48.130;11.602;2023-11-19T06:11:06;8.73;;;8.43;;
37937;SDS011;23763;48.130;11.602;2023-11-19T06:13:32;8.68;;;8.30;;
37937;SDS011;23763;48.130;11.602;2023-11-19T06:15:58;7.90;;;7.60;;
37937;SDS011;23763;48.130;11.602;2023-11-19T06:18:23;7.88;;;7.57;;
37937;SDS011;23763;48.130;11.602;2023-11-19T06:20:50;8.73;;;8.43;;
37937;SDS011;23763;48.130;11.602;2023-11-19T06:23:15;8.85;;;8.55;;
37937;SDS011;23763;48.130;11.602;2023-11-19T06:25:41;8.50;;;8.20;;
37937;SDS011;23763;48.130;11.602;2023-11-19T06:28:07;8.23;;;7.95;;
37937;SDS011;23763;48.130;11.602;2023-11-19T06:30:32;8.40;;;8.10;;
37937;SDS011;23763;48.130;11.602;2023-11-19T06:32:58;8.32;;;8.02;;
37937;SDS011;23763;48.130;11.602;2023-11-19T06:35:24;8.40;;;8.10;;
37937;SDS011;23763;48.130;11.602;2023-11-19T06:37:50;8.18;;;7.88;;
37937;SDS011;23763;48.130;11.602;2023-11-19T06:40:15;8.27;;;7.97;;
37937;SDS011;23763;48.130;11.602;2023-11-19T06:42:41;8.30;;;7.90;;
37937;SDS011;23763;48.130;11.602;2023-11-19T06:45:07;8.38;;;8.07;;
37937;SDS011;23763;48.130;11.602;2023-11-19T06:47:32;8.05;;;7.75;;
37937;SDS011;23763;48.130;11.602;2023-11-19T06:49:58;7.80;;;7.57;;
37937;SDS011;23763;48.130;11.602;2023-11-19T06:52:24;8.48;;;8.18;;
37937;SDS011;23763;48.130;11.602;2023-11-19T06:54:50;8.27;;;7.97;;
37937;SDS011;23763;48.130;11.602;2023-11-19T06:57:16;8.80;;;8.40;;
37937;SDS011;23763;48.130;11.602;2023-11-19T06:59:41;8.77;;;8.48;;
37937;SDS011;23763;48.130;11.602;2023-11-19T07:02:07;8.48;;;8.18;;
37937;SDS011;23763;48.130;11.602;2023-11-19T07:04:33;8.50;;;8.10;;
37937;SDS011;23763;48.130;11.602;2023-11-19T07:06:59;8.27;;;8.02;;
37937;SDS011;23763;48.130;11.602;2023-11-19T07:09:25;8.82;;;8.52;;
37937;SDS011;23763;48.130;11.602;2023-11-19T07:11:51;8.65;;;8.35;;
37937;SDS011;23763;48.130;11.602;2023-11-19T07:14:17;9.00;;;8.70;;
37937;SDS011;23763;48.130;11.602;2023-11-19T07:16:43;8.70;;;8.40;;
37937;SDS011;23763;48.130;11.602;2023-11-19T07:19:10;8.77;;;8.48;;
37937;SDS011;23763;48.130;11.602;2023-11-19T07:21:36;8.40;;;8.10;;
37937;SDS011;23763;48.130;11.602;2023-11-19T07:24:09;8.32;;;8.02;;
37937;SDS011;23763;48.130;11.602;2023-11-19T07:26:34;8.10;;;7.80;;
37937;SDS011;23763;48.130;11.602;2023-11-19T07:29:00;8.75;;;8.25;;
37937;SDS011;23763;48.130;11.602;2023-11-19T07:31:26;8.52;;;8.20;;
37937;SDS011;23763;48.130;11.602;2023-11-19T07:33:52;8.32;;;8.02;;
37937;SDS011;23763;48.130;11.602;2023-11-19T07:36:18;8.38;;;8.07;;
37937;SDS011;23763;48.130;11.602;2023-11-19T07:38:45;8.20;;;7.90;;
37937;SDS011;23763;48.130;11.602;2023-11-19T07:41:12;8.50;;;8.20;;
37937;SDS011;23763;48.130;11.602;2023-11-19T07:43:43;7.85;;;7.65;;
37937;SDS011;23763;48.130;11.602;2023-11-19T07:46:12;8.10;;;7.80;;
37937;SDS011;23763;48.130;11.602;2023-11-19T07:48:39;8.10;;;7.80;;
37937;SDS011;23763;48.130;11.602;2023-11-19T07:51:05;8.52;;;8.23;;
37937;SDS011;23763;48.130;11.602;2023-11-19T07:53:31;8.77;;;8.48;;
37937;SDS011;23763;48.130;11.602;2023-11-19T07:55:57;8.30;;;8.00;;
37937;SDS011;23763;48.130;11.602;2023-11-19T07:58:24;7.88;;;7.68;;
37937;SDS011;23763;48.130;11.602;2023-11-19T08:00:50;8.05;;;7.82;;
37937;SDS011;23763;48.130;11.602;2023-11-19T08:03:17;7.63;;;7.43;;
37937;SDS011;23763;48.130;11.602;2023-11-19T08:05:44;8.05;;;7.75;;
37937;SDS011;23763;48.130;11.602;2023-11-19T08:08:11;7.40;;;7.20;;
37937;SDS011;23763;48.130;11.602;2023-11-19T08:10:37;8.73;;;8.35;;
37937;SDS011;23763;48.130;11.602;2023-11-19T08:13:02;7.65;;;7.35;;
37937;SDS011;23763;48.130;11.602;2023-11-19T08:15:28;8.00;;;7.70;;
37937;SDS011;23763;48.130;11.602;2023-11-19T08:17:54;7.90;;;7.60;;
37937;SDS011;23763;48.130;11.602;2023-11-19T08:20:19;7.63;;;7.32;;
37937;SDS011;23763;48.130;11.602;2023-11-19T08:22:45;8.00;;;7.80;;
37937;SDS011;23763;48.130;11.602;2023-11-19T08:25:11;7.50;;;7.30;;
37937;SDS011;23763;48.130;11.602;2023-11-19T08:27:36;7.68;;;7.43;;
37937;SDS011;23763;48.130;11.602;2023-11-19T08:30:02;7.25;;;7.05;;
37937;SDS011;23763;48.130;11.602;2023-11-19T08:32:28;7.18;;;6.97;;
37937;SDS011;23763;48.130;11.602;2023-11-19T08:34:54;7.70;;;7.30;;
37937;SDS011;23763;48.130;11.602;2023-11-19T08:37:19;7.53;;;7.30;;
37937;SDS011;23763;48.130;11.602;2023-11-19T08:39:47;6.93;;;6.72;;
37937;SDS011;23763;48.130;11.602;2023-11-19T08:42:13;7.57;;;7.28;;
37937;SDS011;23763;48.130;11.602;2023-11-19T08:44:39;8.05;;;7.75;;
37937;SDS011;23763;48.130;11.602;2023-11-19T08:47:08;7.63;;;7.32;;
37937;SDS011;23763;48.130;11.602;2023-11-19T08:49:34;8.00;;;7.70;;
37937;SDS011;23763;48.130;11.602;2023-11-19T08:52:00;7.20;;;7.00;;
37937;SDS011;23763;48.130;11.602;2023-11-19T08:54:25;7.93;;;7.65;;
37937;SDS011;23763;48.130;11.602;2023-11-19T08:56:51;7.38;;;7.18;;
37937;SDS011;23763;48.130;11.602;2023-11-19T08:59:17;7.70;;;7.40;;
37937;SDS011;23763;48.130;11.602;2023-11-19T09:01:44;6.95;;;6.75;;
37937;SDS011;23763;48.130;11.602;2023-11-19T09:04:09;7.38;;;7.07;;
37937;SDS011;23763;48.130;11.602;2023-11-19T09:06:35;7.25;;;6.95;;
37937;SDS011;23763;48.130;11.602;2023-11-19T09:09:01;7.70;;;7.40;;
37937;SDS011;23763;48.130;11.602;2023-11-19T09:11:28;7.28;;;7.03;;
37937;SDS011;23763;48.130;11.602;2023-11-19T09:13:54;7.35;;;7.05;;
37937;SDS011;23763;48.130;11.602;2023-11-19T09:16:19;7.75;;;7.45;;
37937;SDS011;23763;48.130;11.602;2023-11-19T09:18:45;7.28;;;6.97;;
37937;SDS011;23763;48.130;11.602;2023-11-19T09:21:11;6.85;;;6.65;;
37937;SDS011;23763;48.130;11.602;2023-11-19T09:23:37;7.50;;;7.18;;
37937;SDS011;23763;48.130;11.602;2023-11-19T09:26:13;7.43;;;7.13;;
37937;SDS011;23763;48.130;11.602;2023-11-19T09:28:39;7.20;;;6.90;;
37937;SDS011;23763;48.130;11.602;2023-11-19T09:31:13;7.50;;;7.20;;
37937;SDS011;23763;48.130;11.602;2023-11-19T09:33:42;7.20;;;6.90;;
37937;SDS011;23763;48.130;11.602;2023-11-19T09:36:08;6.70;;;6.50;;
37937;SDS011;23763;48.130;11.602;2023-11-19T09:38:35;7.18;;;6.88;;
37937;SDS011;23763;48.130;11.602;2023-11-19T09:41:04;7.00;;;6.70;;
37937;SDS011;23763;48.130;11.602;2023-11-19T09:43:33;7.10;;;6.80;;
37937;SDS011;23763;48.130;11.602;2023-11-19T09:46:02;6.38;;;6.18;;
37937;SDS011;23763;48.130;11.602;2023-11-19T09:48:37;7.43;;;7.13;;
37937;SDS011;23763;48.130;11.602;2023-11-19T09:51:04;7.13;;;6.82;;
37937;SDS011;23763;48.130;11.602;2023-11-19T09:53:30;7.78;;;7.47;;
37937;SDS011;23763;48.130;11.602;2023-11-19T09:55:56;7.15;;;6.95;;
37937;SDS011;23763;48.130;11.602;2023-11-19T09:58:31;6.90;;;6.60;;
37937;SDS011;23763;48.130;11.602;2023-11-19T10:00:57;7.10;;;6.90;;
37937;SDS011;23763;48.130;11.602;2023-11-19T10:03:24;6.80;;;6.50;;
37937;SDS011;23763;48.130;11.602;2023-11-19T10:05:51;7.00;;;6.80;;
37937;SDS011;23763;48.130;11.602;2023-11-19T10:08:18;6.90;;;6.60;;
37937;SDS011;23763;48.130;11.602;2023-11-19T10:10:44;6.72;;;6.38;;
37937;SDS011;23763;48.130;11.602;2023-11-19T10:13:09;6.45;;;6.22;;
37937;SDS011;23763;48.130;11.602;2023-11-19T10:15:37;6.38;;;6.18;;
37937;SDS011;23763;48.130;11.602;2023-11-19T10:18:03;6.40;;;6.15;;
37937;SDS011;23763;48.130;11.602;2023-11-19T10:20:35;6.63;;;6.43;;
37937;SDS011;23763;48.130;11.602;2023-11-19T10:23:01;6.45;;;6.25;;
37937;SDS011;23763;48.130;11.602;2023-11-19T10:25:28;6.70;;;6.40;;
37937;SDS011;23763;48.130;11.602;2023-11-19T10:27:54;6.30;;;6.10;;
37937;SDS011;23763;48.130;11.602;2023-11-19T10:30:24;6.60;;;6.30;;
37937;SDS011;23763;48.130;11.602;2023-11-19T10:38:24;6.78;;;6.38;;
37937;SDS011;23763;48.130;11.602;2023-11-19T10:40:51;6.30;;;6.00;;
37937;SDS011;23763;48.130;11.602;2023-11-19T10:43:17;6.15;;;5.93;;
37937;SDS011;23763;48.130;11.602;2023-11-19T10:45:48;6.75;;;6.18;;
37937;SDS011;23763;48.130;11.602;2023-11-19T10:48:13;6.35;;;6.10;;
37937;SDS011;23763;48.130;11.602;2023-11-19T10:50:40;6.20;;;6.00;;
37937;SDS011;23763;48.130;11.602;2023-11-19T10:53:07;6.20;;;6.00;;
37937;SDS011;23763;48.130;11.602;2023-11-19T10:55:34;5.68;;;5.47;;
37937;SDS011;23763;48.130;11.602;2023-11-19T10:58:04;6.00;;;5.68;;
37937;SDS011;23763;48.130;11.602;2023-11-19T11:03:18;6.10;;;5.82;;
37937;SDS011;23763;48.130;11.602;2023-11-19T11:05:48;5.60;;;5.40;;
37937;SDS011;23763;48.130;11.602;2023-11-19T11:08:15;5.90;;;5.60;;
37937;SDS011;23763;48.130;11.602;2023-11-19T11:10:45;5.68;;;5.47;;
37937;SDS011;23763;48.130;11.602;2023-11-19T11:13:17;5.53;;;5.32;;
37937;SDS011;23763;48.130;11.602;2023-11-19T11:15:44;5.10;;;4.90;;
37937;SDS011;23763;48.130;11.602;2023-11-19T11:18:14;5.20;;;5.00;;
37937;SDS011;23763;48.130;11.602;2023-11-19T11:20:40;4.90;;;4.70;;
37937;SDS011;23763;48.130;11.602;2023-11-19T11:23:27;5.40;;;5.20;;
37937;SDS011;23763;48.130;11.602;2023-11-19T11:29:04;5.43;;;5.22;;
37937;SDS011;23763;48.130;11.602;2023-11-19T11:37:26;5.50;;;5.30;;
37937;SDS011;23763;48.130;11.602;2023-11-19T11:40:13;5.30;;;5.10;;
37937;SDS011;23763;48.130;11.602;2023-11-19T11:42:41;5.50;;;5.20;;
37937;SDS011;23763;48.130;11.602;2023-11-19T11:45:07;4.95;;;4.75;;
37937;SDS011;23763;48.130;11.602;2023-11-19T11:55:28;5.40;;;5.00;;
37937;SDS011;23763;48.130;11.602;2023-11-19T11:57:59;5.25;;;5.05;;
37937;SDS011;23763;48.130;11.602;2023-11-19T12:00:38;5.90;;;5.70;;
37937;SDS011;23763;48.130;11.602;2023-11-19T12:03:05;6.13;;;5.90;;
37937;SDS011;23763;48.130;11.602;2023-11-19T12:05:32;5.57;;;5.38;;
37937;SDS011;23763;48.130;11.602;2023-11-19T12:08:05;5.55;;;5.35;;
37937;SDS011;23763;48.130;11.602;2023-11-19T12:10:48;5.45;;;5.25;;
37937;SDS011;23763;48.130;11.602;2023-11-19T12:13:16;5.25;;;5.05;;
37937;SDS011;23763;48.130;11.602;2023-11-19T12:16:08;5.50;;;5.30;;
37937;SDS011;23763;48.130;11.602;2023-11-19T12:18:32;5.60;;;5.30;;
37937;SDS011;23763;48.130;11.602;2023-11-19T12:21:01;5.60;;;5.40;;
37937;SDS011;23763;48.130;11.602;2023-11-19T12:23:29;5.32;;;5.13;;
37937;SDS011;23763;48.130;11.602;2023-11-19T12:25:55;6.57;;;6.28;;
37937;SDS011;23763;48.130;11.602;2023-11-19T12:28:21;5.20;;;5.00;;
37937;SDS011;23763;48.130;11.602;2023-11-19T12:30:49;5.20;;;5.00;;
37937;SDS011;23763;48.130;11.602;2023-11-19T12:33:16;4.93;;;4.72;;
37937;SDS011;23763;48.130;11.602;2023-11-19T12:35:43;5.13;;;4.93;;
37937;SDS011;23763;48.130;11.602;2023-11-19T12:38:23;5.25;;;5.00;;
37937;SDS011;23763;48.130;11.602;2023-11-19T12:41:03;5.32;;;5.13;;
37937;SDS011;23763;48.130;11.602;2023-11-19T12:43:29;6.25;;;5.75;;
37937;SDS011;23763;48.130;11.602;2023-11-19T12:45:56;5.35;;;5.15;;
37937;SDS011;23763;48.130;11.602;2023-11-19T12:48:21;5.25;;;5.05;;
37937;SDS011;23763;48.130;11.602;2023-11-19T12:50:57;5.20;;;5.00;;
37937;SDS011;23763;48.130;11.602;2023-11-19T12:53:26;4.97;;;4.78;;
37937;SDS011;23763;48.130;11.602;2023-11-19T12:55:52;5.28;;;5.07;;
37937;SDS011;23763;48.130;11.602;2023-11-19T12:58:52;4.65;;;4.45;;
37937;SDS011;23763;48.130;11.602;2023-11-19T13:01:14;4.97;;;4.57;;
37937;SDS011;23763;48.130;11.602;2023-11-19T13:03:44;5.07;;;4.78;;
37937;SDS011;23763;48.130;11.602;2023-11-19T13:06:10;4.80;;;4.60;;
37937;SDS011;23763;48.130;11.602;2023-11-19T13:08:55;4.68;;;4.47;;
37937;SDS011;23763;48.130;11.602;2023-11-19T13:11:31;4.68;;;4.47;;
37937;SDS011;23763;48.130;11.602;2023-11-19T13:13:58;5.13;;;4.93;;
37937;SDS011;23763;48.130;11.602;2023-11-19T13:16:35;4.70;;;4.50;;
37937;SDS011;23763;48.130;11.602;2023-11-19T13:19:01;4.80;;;4.60;;
37937;SDS011;23763;48.130;11.602;2023-11-19T13:21:27;5.40;;;5.20;;
37937;SDS011;23763;48.130;11.602;2023-11-19T13:23:54;5.30;;;5.10;;
37937;SDS011;23763;48.130;11.602;2023-11-19T13:26:20;5.18;;;4.93;;
37937;SDS011;23763;48.130;11.602;2023-11-19T13:28:46;5.20;;;5.00;;
37937;SDS011;23763;48.130;11.602;2023-11-19T13:31:11;5.00;;;4.80;;
37937;SDS011;23763;48.130;11.602;2023-11-19T13:33:37;4.90;;;4.70;;
37937;SDS011;23763;48.130;11.602;2023-11-19T13:36:03;5.10;;;4.90;;
37937;SDS011;23763;48.130;11.602;2023-11-19T13:38:33;4.63;;;4.50;;
37937;SDS011;23763;48.130;11.602;2023-11-19T13:41:00;5.18;;;4.85;;
37937;SDS011;23763;48.130;11.602;2023-11-19T13:43:26;5.00;;;4.80;;
37937;SDS011;23763;48.130;11.602;2023-11-19T13:45:55;4.85;;;4.68;;
37937;SDS011;23763;48.130;11.602;2023-11-19T13:48:22;5.00;;;4.80;;
37937;SDS011;23763;48.130;11.602;2023-11-19T13:50:48;4.97;;;4.80;;
37937;SDS011;23763;48.130;11.602;2023-11-19T13:53:13;4.90;;;4.60;;
37937;SDS011;23763;48.130;11.602;2023-11-19T13:55:39;5.00;;;4.80;;
37937;SDS011;23763;48.130;11.602;2023-11-19T13:58:05;5.00;;;4.80;;
37937;SDS011;23763;48.130;11.602;2023-11-19T14:00:30;4.90;;;4.70;;
37937;SDS011;23763;48.130;11.602;2023-11-19T14:02:56;5.13;;;4.88;;
37937;SDS011;23763;48.130;11.602;2023-11-19T14:05:21;5.32;;;5.10;;
37937;SDS011;23763;48.130;11.602;2023-11-19T14:07:48;5.20;;;5.00;;
37937;SDS011;23763;48.130;11.602;2023-11-19T14:10:14;5.05;;;4.85;;
37937;SDS011;23763;48.130;11.602;2023-11-19T14:12:40;5.45;;;5.25;;
37937;SDS011;23763;48.130;11.602;2023-11-19T14:15:06;6.00;;;5.70;;
37937;SDS011;23763;48.130;11.602;2023-11-19T14:17:34;5.40;;;5.20;;
37937;SDS011;23763;48.130;11.602;2023-11-19T14:20:03;5.70;;;5.47;;
37937;SDS011;23763;48.130;11.602;2023-11-19T14:22:45;5.20;;;5.00;;
37937;SDS011;23763;48.130;11.602;2023-11-19T14:25:15;5.93;;;5.47;;
37937;SDS011;23763;48.130;11.602;2023-11-19T14:27:41;5.22;;;5.03;;
37937;SDS011;23763;48.130;11.602;2023-11-19T14:30:09;5.85;;;5.53;;
37937;SDS011;23763;48.130;11.602;2023-11-19T14:32:39;6.20;;;5.90;;
37937;SDS011;23763;48.130;11.602;2023-11-19T14:35:09;6.10;;;5.70;;
37937;SDS011;23763;48.130;11.602;2023-11-19T14:37:35;5.55;;;5.25;;
37937;SDS011;23763;48.130;11.602;2023-11-19T14:40:01;5.30;;;5.10;;
37937;SDS011;23763;48.130;11.602;2023-11-19T14:42:29;5.20;;;4.90;;
37937;SDS011;23763;48.130;11.602;2023-11-19T14:44:55;5.03;;;4.82;;
37937;SDS011;23763;48.130;11.602;2023-11-19T14:47:20;4.72;;;4.55;;
37937;SDS011;23763;48.130;11.602;2023-11-19T14:49:46;4.95;;;4.75;;
37937;SDS011;23763;48.130;11.602;2023-11-19T14:52:12;4.72;;;4.53;;
37937;SDS011;23763;48.130;11.602;2023-11-19T14:54:38;5.03;;;4.82;;
37937;SDS011;23763;48.130;11.602;2023-11-19T14:57:04;4.68;;;4.55;;
37937;SDS011;23763;48.130;11.602;2023-11-19T14:59:33;4.90;;;4.70;;
37937;SDS011;23763;48.130;11.602;2023-11-19T15:02:02;4.65;;;4.53;;